createdAt,value
2022-12-16T00:02:08.097Z,100.00
2022-12-16T00:04:35.105Z,100.00
2022-12-16T00:07:01.974Z,100.00
2022-12-16T00:09:28.840Z,100.00
2022-12-16T00:11:55.780Z,99.47
2022-12-16T00:14:22.754Z,98.75
2022-12-16T00:16:49.807Z,98.33
2022-12-16T00:19:17.443Z,97.80
2022-12-16T00:21:44.431Z,97.60
2022-12-16T00:24:11.324Z,98.00
2022-12-16T00:26:38.184Z,97.17
2022-12-16T00:29:07.761Z,97.16
2022-12-16T00:31:34.650Z,97.63
2022-12-16T00:34:01.606Z,96.15
2022-12-16T00:36:28.932Z,96.78
2022-12-16T00:38:55.818Z,96.55
2022-12-16T00:41:22.798Z,95.63
2022-12-16T00:43:49.725Z,96.01
2022-12-16T00:46:17.452Z,96.14
2022-12-16T00:48:44.443Z,96.32
2022-12-16T00:51:11.421Z,96.93
2022-12-16T00:53:38.423Z,96.84
2022-12-16T00:56:11.394Z,96.09
2022-12-16T00:58:38.515Z,95.95
2022-12-16T01:01:05.896Z,96.82
2022-12-16T01:03:33.089Z,96.63
2022-12-16T01:06:00.248Z,96.04
2022-12-16T01:08:27.292Z,96.00
2022-12-16T01:10:57.250Z,96.12
2022-12-16T01:13:25.820Z,95.72
2022-12-16T01:15:53.132Z,95.20
2022-12-16T01:18:20.173Z,95.81
2022-12-16T01:20:47.240Z,95.64
2022-12-16T01:23:14.117Z,95.46
2022-12-16T01:25:41.018Z,94.91
2022-12-16T01:28:08.170Z,95.39
2022-12-16T01:30:35.660Z,95.62
2022-12-16T01:33:02.569Z,96.47
2022-12-16T01:35:52.491Z,95.89
2022-12-16T01:38:16.399Z,95.58
2022-12-16T01:40:43.298Z,94.73
2022-12-16T01:43:14.914Z,95.74
2022-12-16T01:45:41.931Z,95.49
2022-12-16T01:49:01.638Z,95.99
2022-12-16T01:51:52.077Z,97.25
2022-12-16T01:54:29.049Z,95.72
2022-12-16T01:57:01.469Z,95.72
2022-12-16T01:59:31.838Z,96.69
2022-12-16T02:01:59.795Z,95.67
2022-12-16T02:04:26.933Z,96.21
2022-12-16T02:06:54.326Z,96.61
2022-12-16T02:09:21.881Z,96.09
2022-12-16T02:12:30.376Z,96.42
2022-12-16T02:15:09.199Z,96.88
2022-12-16T02:18:13.432Z,97.23
2022-12-16T02:21:22.321Z,96.65
2022-12-16T02:24:33.194Z,97.32
2022-12-16T02:27:24.347Z,97.41
2022-12-16T02:30:34.406Z,96.27
2022-12-16T02:33:35.427Z,97.70
2022-12-16T02:36:12.721Z,97.26
2022-12-16T02:39:20.334Z,97.50
2022-12-16T02:42:07.386Z,97.87
2022-12-16T02:45:07.189Z,98.04
2022-12-16T02:47:34.133Z,97.92
2022-12-16T02:50:01.198Z,97.37
2022-12-16T02:52:32.912Z,97.26
2022-12-16T02:55:07.803Z,97.28
2022-12-16T02:58:06.749Z,97.53
2022-12-16T03:01:06.898Z,97.34
2022-12-16T03:03:45.821Z,96.49
2022-12-16T03:06:17.399Z,97.03
2022-12-16T03:08:51.438Z,97.16
2022-12-16T03:11:18.730Z,97.21
2022-12-16T03:13:51.913Z,97.21
2022-12-16T03:16:23.172Z,97.64
2022-12-16T03:19:02.130Z,98.16
2022-12-16T03:21:45.182Z,97.34
2022-12-16T03:24:13.971Z,97.29
2022-12-16T03:27:11.697Z,97.75
2022-12-16T03:30:13.859Z,97.85
2022-12-16T03:33:02.783Z,97.99
2022-12-16T03:35:44.888Z,98.05
2022-12-16T03:38:14.295Z,97.90
2022-12-16T03:40:44.110Z,97.77
2022-12-16T03:43:16.848Z,97.96
2022-12-16T03:45:48.261Z,97.88
2022-12-16T03:48:16.883Z,97.51
2022-12-16T03:50:43.832Z,97.95
2022-12-16T03:53:10.886Z,98.37
2022-12-16T03:55:37.812Z,98.35
2022-12-16T03:58:04.776Z,98.42
2022-12-16T04:00:31.741Z,99.29
2022-12-16T04:02:58.852Z,99.05
2022-12-16T04:05:26.045Z,98.78
2022-12-16T04:07:54.410Z,99.47
2022-12-16T04:10:42.682Z,98.90
2022-12-16T04:13:29.795Z,99.40
2022-12-16T04:16:15.192Z,99.49
2022-12-16T04:19:01.117Z,100.00
2022-12-16T04:21:46.887Z,99.78
2022-12-16T04:24:22.480Z,99.62
2022-12-16T04:27:14.885Z,99.35
2022-12-16T04:30:02.293Z,99.53
2022-12-16T04:32:52.809Z,100.00
2022-12-16T04:35:38.600Z,99.40
2022-12-16T04:38:24.374Z,99.12
2022-12-16T04:41:09.684Z,99.29
2022-12-16T04:43:55.691Z,99.80
2022-12-16T04:46:41.651Z,100.00
2022-12-16T04:49:27.403Z,100.00
2022-12-16T04:52:12.681Z,99.94
2022-12-16T04:54:57.977Z,99.51
2022-12-16T04:58:00.483Z,99.88
2022-12-16T05:00:46.044Z,99.76
2022-12-16T05:03:31.573Z,99.99
2022-12-16T05:06:17.779Z,99.77
2022-12-16T05:09:02.977Z,99.63
2022-12-16T05:11:48.266Z,99.38
2022-12-16T05:14:33.541Z,98.97
2022-12-16T05:17:18.859Z,99.00
2022-12-16T05:20:04.143Z,99.45
2022-12-16T05:22:50.576Z,99.15
2022-12-16T05:25:35.852Z,98.98
2022-12-16T05:28:22.085Z,98.97
2022-12-16T05:31:07.418Z,99.83
2022-12-16T05:33:52.821Z,99.58
2022-12-16T05:36:51.800Z,99.36
2022-12-16T05:39:38.236Z,99.30
2022-12-16T05:42:23.831Z,98.85
2022-12-16T05:45:09.442Z,98.94
2022-12-16T05:47:54.755Z,98.96
2022-12-16T05:50:40.301Z,98.94
2022-12-16T05:53:25.710Z,99.26
2022-12-16T05:56:11.297Z,99.50
2022-12-16T05:58:56.598Z,99.62
2022-12-16T06:01:42.209Z,99.40
2022-12-16T06:04:28.177Z,99.51
2022-12-16T06:07:13.518Z,100.00
2022-12-16T06:09:58.973Z,99.92
2022-12-16T06:12:44.295Z,99.87
2022-12-16T06:15:30.041Z,99.66
2022-12-16T06:18:15.905Z,100.00
2022-12-16T06:21:01.720Z,99.67
2022-12-16T06:23:47.093Z,99.68
2022-12-16T06:26:32.980Z,98.71
2022-12-16T06:29:18.316Z,98.34
2022-12-16T06:32:03.547Z,98.35
2022-12-16T06:34:48.857Z,98.18
2022-12-16T06:37:34.217Z,98.51
2022-12-16T06:40:20.385Z,98.31
2022-12-16T06:43:05.684Z,98.39
2022-12-16T06:45:52.517Z,98.79
2022-12-16T06:48:43.042Z,97.74
2022-12-16T06:51:28.339Z,97.67
2022-12-16T06:54:13.631Z,96.56
2022-12-16T06:56:58.984Z,96.61
2022-12-16T06:59:44.273Z,98.01
2022-12-16T07:02:30.697Z,98.45
2022-12-16T07:05:16.013Z,98.92
2022-12-16T07:08:09.595Z,99.48
2022-12-16T07:11:00.359Z,99.46
2022-12-16T07:13:54.467Z,99.70
2022-12-16T07:16:40.190Z,99.89
2022-12-16T07:19:25.685Z,99.79
2022-12-16T07:22:10.939Z,99.18
2022-12-16T07:24:56.102Z,99.60
2022-12-16T07:27:41.310Z,98.88
2022-12-16T07:30:27.808Z,99.26
2022-12-16T07:33:13.090Z,98.75
2022-12-16T07:36:02.428Z,99.41
2022-12-16T07:38:47.678Z,99.52
2022-12-16T07:41:32.966Z,98.39
2022-12-16T07:44:18.306Z,97.54
2022-12-16T07:47:03.856Z,97.59
2022-12-16T07:49:49.141Z,98.36
2022-12-16T07:52:34.378Z,98.79
2022-12-16T07:55:20.030Z,98.09
2022-12-16T07:58:09.831Z,96.76
2022-12-16T08:04:01.071Z,96.87
2022-12-16T08:06:46.553Z,97.02
2022-12-16T08:09:31.798Z,96.95
2022-12-16T08:12:17.445Z,96.44
2022-12-16T08:15:02.724Z,96.32
2022-12-16T08:17:48.034Z,96.37
2022-12-16T08:20:33.357Z,97.11
2022-12-16T08:23:19.354Z,97.19
2022-12-16T08:26:04.988Z,98.86
2022-12-16T08:28:50.241Z,98.90
2022-12-16T08:31:35.679Z,99.35
2022-12-16T08:34:21.050Z,99.18
2022-12-16T08:37:06.461Z,99.23
2022-12-16T08:40:11.045Z,99.46
2022-12-16T08:42:57.212Z,99.04
2022-12-16T08:45:43.166Z,98.71
2022-12-16T08:48:28.960Z,98.33
2022-12-16T08:51:14.689Z,97.48
2022-12-16T08:54:00.058Z,96.70
2022-12-16T08:56:45.461Z,96.44
2022-12-16T08:59:32.306Z,95.79
2022-12-16T09:02:17.876Z,95.74
2022-12-16T09:05:03.642Z,95.52
2022-12-16T09:07:49.419Z,95.98
2022-12-16T09:10:40.239Z,96.02
2022-12-16T09:13:29.050Z,95.17
2022-12-16T09:16:17.738Z,95.33
2022-12-16T09:19:05.403Z,94.25
2022-12-16T09:21:50.699Z,95.03
2022-12-16T09:24:37.294Z,94.96
2022-12-16T09:27:23.251Z,94.07
2022-12-16T09:30:08.992Z,93.82
2022-12-16T09:32:59.804Z,94.47
2022-12-16T09:35:45.067Z,92.71
2022-12-16T09:38:30.393Z,92.59
2022-12-16T09:41:16.170Z,91.73
2022-12-16T09:44:13.947Z,92.39
2022-12-16T09:47:08.750Z,91.36
2022-12-16T09:50:08.490Z,92.08
2022-12-16T09:53:19.917Z,92.59
2022-12-16T09:56:06.097Z,92.35
2022-12-16T09:59:10.957Z,91.60
2022-12-16T10:02:17.500Z,91.64
2022-12-16T10:05:09.708Z,90.97
2022-12-16T10:08:06.772Z,90.69
2022-12-16T10:11:16.512Z,90.69
2022-12-16T10:14:19.851Z,91.61
2022-12-16T10:17:44.133Z,90.47
2022-12-16T10:21:08.290Z,91.65
2022-12-16T10:24:37.659Z,90.66
2022-12-16T10:27:35.662Z,91.21
2022-12-16T10:30:25.559Z,90.54
2022-12-16T10:33:10.885Z,90.70
2022-12-16T10:36:04.970Z,90.85
2022-12-16T10:38:55.673Z,91.38
2022-12-16T10:41:45.684Z,90.63
2022-12-16T10:45:13.446Z,90.50
2022-12-16T10:48:15.954Z,89.30
2022-12-16T10:51:01.028Z,90.22
2022-12-16T10:53:46.986Z,90.38
2022-12-16T10:57:19.049Z,89.72
2022-12-16T11:00:04.319Z,89.71
2022-12-16T11:02:50.011Z,88.69
2022-12-16T11:05:48.701Z,89.14
2022-12-16T11:08:50.831Z,88.06
2022-12-16T11:11:48.150Z,90.09
2022-12-16T11:15:05.581Z,88.07
2022-12-16T11:17:47.680Z,87.94
2022-12-16T11:20:44.427Z,89.10
2022-12-16T11:23:42.989Z,89.70
2022-12-16T11:26:38.337Z,88.69
2022-12-16T11:29:37.678Z,87.71
2022-12-16T11:32:43.295Z,88.36
2022-12-16T11:35:45.909Z,88.54
2022-12-16T11:38:47.640Z,87.97
2022-12-16T11:41:56.948Z,87.69
2022-12-16T11:44:59.009Z,88.41
2022-12-16T11:48:16.481Z,88.49
2022-12-16T11:51:11.288Z,88.24
2022-12-16T11:54:13.031Z,88.22
2022-12-16T11:57:03.392Z,88.50
2022-12-16T11:59:59.257Z,87.29
2022-12-16T12:03:16.342Z,88.29
2022-12-16T12:06:30.000Z,87.84
2022-12-16T12:09:26.048Z,88.64
2022-12-16T12:12:38.805Z,88.97
2022-12-16T12:15:59.697Z,89.88
2022-12-16T12:19:19.957Z,88.17
2022-12-16T12:22:31.750Z,88.31
2022-12-16T12:25:27.665Z,88.41
2022-12-16T12:29:05.181Z,89.11
2022-12-16T12:32:24.772Z,87.44
2022-12-16T12:35:19.602Z,88.02
2022-12-16T12:38:18.853Z,87.46
2022-12-16T12:41:33.804Z,87.51
2022-12-16T12:44:56.212Z,86.96
2022-12-16T12:47:42.331Z,87.75
2022-12-16T12:50:37.256Z,87.65
2022-12-16T12:53:53.883Z,88.08
2022-12-16T12:56:46.063Z,88.80
2022-12-16T13:00:02.040Z,88.68
2022-12-16T13:03:34.638Z,87.18
2022-12-16T13:06:21.943Z,87.39
2022-12-16T13:09:10.331Z,88.11
2022-12-16T13:11:58.271Z,87.72
2022-12-16T13:14:49.658Z,88.32
2022-12-16T13:17:40.382Z,87.28
2022-12-16T13:20:51.551Z,87.96
2022-12-16T13:23:58.934Z,89.01
2022-12-16T13:26:48.318Z,89.68
2022-12-16T13:29:44.671Z,89.96
2022-12-16T13:32:45.782Z,89.02
2022-12-16T13:35:31.070Z,89.43
2022-12-16T13:38:23.157Z,87.96
2022-12-16T13:41:24.939Z,87.79
2022-12-16T13:44:14.931Z,87.41
2022-12-16T13:47:12.097Z,87.79
2022-12-16T13:50:08.151Z,88.52
2022-12-16T13:53:03.560Z,89.15
2022-12-16T13:56:07.618Z,90.07
2022-12-16T13:59:09.979Z,90.52
2022-12-16T14:02:16.998Z,90.65
2022-12-16T14:05:06.962Z,90.22
2022-12-16T14:07:56.690Z,90.07
2022-12-16T14:11:00.431Z,89.35
2022-12-16T14:13:59.352Z,88.85
2022-12-16T14:17:18.926Z,89.24
2022-12-16T14:20:31.403Z,89.08
2022-12-16T14:23:57.296Z,89.30
2022-12-16T14:26:45.340Z,89.47
2022-12-16T14:29:51.145Z,89.75
2022-12-16T14:32:53.726Z,90.39
2022-12-16T14:35:42.866Z,91.80
2022-12-16T14:38:42.413Z,91.05
2022-12-16T14:41:42.585Z,90.90
2022-12-16T14:44:43.331Z,91.15
2022-12-16T14:47:37.571Z,91.65
2022-12-16T14:50:41.072Z,91.59
2022-12-16T14:53:43.335Z,91.15
2022-12-16T14:56:41.691Z,91.56
2022-12-16T14:59:33.656Z,91.18
2022-12-16T15:02:44.969Z,91.85
2022-12-16T15:05:31.516Z,92.42
2022-12-16T15:08:18.257Z,93.19
2022-12-16T15:11:03.937Z,93.03
2022-12-16T15:13:50.190Z,93.07
2022-12-16T15:16:48.694Z,93.24
2022-12-16T15:19:40.130Z,93.51
2022-12-16T15:22:32.446Z,93.47
2022-12-16T15:25:18.485Z,93.87
2022-12-16T15:28:16.022Z,93.74
2022-12-16T15:31:04.964Z,94.02
2022-12-16T15:33:57.517Z,94.02
2022-12-16T15:36:44.842Z,93.90
2022-12-16T15:39:45.791Z,93.08
2022-12-16T15:42:48.599Z,93.28
2022-12-16T15:45:49.039Z,94.70
2022-12-16T15:48:43.529Z,95.11
2022-12-16T15:51:50.957Z,94.67
2022-12-16T15:54:42.314Z,95.14
2022-12-16T15:57:50.609Z,93.80
2022-12-16T16:00:41.398Z,94.29
2022-12-16T16:03:41.591Z,94.09
2022-12-16T16:06:46.394Z,94.88
2022-12-16T16:09:40.264Z,95.22
2022-12-16T16:12:29.331Z,96.74
2022-12-16T16:15:16.653Z,95.92
2022-12-16T16:18:03.056Z,95.07
2022-12-16T16:20:48.490Z,95.53
2022-12-16T16:23:34.710Z,95.36
2022-12-16T16:26:20.426Z,94.47
2022-12-16T16:29:05.794Z,94.46
2022-12-16T16:32:03.824Z,94.98
2022-12-16T16:34:50.384Z,95.53
2022-12-16T16:37:39.139Z,94.92
2022-12-16T16:40:39.981Z,95.48
2022-12-16T16:43:25.514Z,95.20
2022-12-16T16:46:25.573Z,94.63
2022-12-16T16:49:11.089Z,94.80
2022-12-16T16:51:56.585Z,93.44
2022-12-16T16:54:42.223Z,94.03
2022-12-16T16:57:28.638Z,93.50
2022-12-16T17:00:30.826Z,94.00
2022-12-16T17:03:16.620Z,95.25
2022-12-16T17:06:09.878Z,97.17
2022-12-16T17:08:55.126Z,97.82
2022-12-16T17:11:44.527Z,98.33
2022-12-16T17:14:37.722Z,98.10
2022-12-16T17:17:23.969Z,98.77
2022-12-16T17:20:09.866Z,99.56
2022-12-16T17:22:57.740Z,100.00
2022-12-16T17:25:43.102Z,99.45
2022-12-16T17:28:29.951Z,99.15
2022-12-16T17:31:15.749Z,98.57
2022-12-16T17:34:01.695Z,98.60
2022-12-16T17:36:47.110Z,98.38
2022-12-16T17:39:32.191Z,98.29
2022-12-16T17:42:17.822Z,98.91
2022-12-16T17:45:05.943Z,98.23
2022-12-16T17:47:51.292Z,98.74
2022-12-16T17:50:36.510Z,98.40
2022-12-16T17:53:22.130Z,97.95
2022-12-16T17:56:07.374Z,98.66
2022-12-16T17:58:57.161Z,98.30
2022-12-16T18:01:43.480Z,97.09
2022-12-16T18:04:29.089Z,97.17
2022-12-16T18:07:14.437Z,97.29
2022-12-16T18:09:59.744Z,97.32
2022-12-16T18:12:47.565Z,97.44
2022-12-16T18:15:33.283Z,97.39
2022-12-16T18:18:18.638Z,96.79
2022-12-16T18:21:04.485Z,96.33
2022-12-16T18:23:50.125Z,96.93
2022-12-16T18:26:35.552Z,96.07
2022-12-16T18:29:41.155Z,96.08
2022-12-16T18:32:29.404Z,95.84
2022-12-16T18:35:18.882Z,95.63
2022-12-16T18:38:04.258Z,95.85
2022-12-16T18:40:49.584Z,95.37
2022-12-16T18:43:35.167Z,95.90
2022-12-16T18:46:20.948Z,96.70
2022-12-16T18:49:06.391Z,96.34
2022-12-16T18:51:51.801Z,95.90
2022-12-16T18:54:37.757Z,95.95
2022-12-16T18:57:23.041Z,95.15
2022-12-16T19:00:08.289Z,95.99
2022-12-16T19:02:53.717Z,95.02
2022-12-16T19:05:58.973Z,95.39
2022-12-16T19:08:44.305Z,95.10
2022-12-16T19:11:29.662Z,94.11
2022-12-16T19:14:14.880Z,93.89
2022-12-16T19:17:00.085Z,95.05
2022-12-16T19:19:45.380Z,95.04
2022-12-16T19:22:41.486Z,96.04
2022-12-16T19:25:27.462Z,98.23
2022-12-16T19:28:12.912Z,97.37
2022-12-16T19:30:58.597Z,96.77
2022-12-16T19:33:44.109Z,98.53
2022-12-16T19:36:29.463Z,99.28
2022-12-16T19:39:14.879Z,100.00
2022-12-16T19:42:00.086Z,100.00
2022-12-16T19:44:45.807Z,100.00
2022-12-16T19:47:31.070Z,100.00
2022-12-16T19:50:16.321Z,100.00
2022-12-16T19:53:02.139Z,100.00
2022-12-16T19:55:47.583Z,100.00
2022-12-16T19:58:41.261Z,100.00
2022-12-16T20:01:28.305Z,100.00
2022-12-16T20:04:13.967Z,100.00
2022-12-16T20:06:59.322Z,100.00
2022-12-16T20:09:45.416Z,100.00
2022-12-16T20:12:31.453Z,100.00
2022-12-16T20:15:16.758Z,100.00
2022-12-16T20:18:02.189Z,100.00
2022-12-16T20:20:47.265Z,100.00
2022-12-16T20:23:32.496Z,100.00
2022-12-16T20:26:20.159Z,100.00
2022-12-16T20:29:06.501Z,100.00
2022-12-16T20:31:52.293Z,100.00
2022-12-16T20:34:41.115Z,100.00
2022-12-16T20:37:26.355Z,100.00
2022-12-16T20:40:11.634Z,100.00
2022-12-16T20:42:56.766Z,100.00
2022-12-16T20:45:41.912Z,100.00
2022-12-16T20:48:33.270Z,100.00
2022-12-16T20:54:30.232Z,100.00
2022-12-16T20:57:15.366Z,100.00
2022-12-16T21:00:11.116Z,100.00
2022-12-16T21:02:56.592Z,100.00
2022-12-16T21:05:41.913Z,100.00
2022-12-16T21:08:27.234Z,100.00
2022-12-16T21:11:16.122Z,99.25
2022-12-16T21:14:01.376Z,97.91
2022-12-16T21:14:42.771Z,100.00
2022-12-16T21:16:46.498Z,97.79
2022-12-16T21:19:33.734Z,98.29
2022-12-16T21:22:19.809Z,98.55
2022-12-16T21:25:05.076Z,98.97
2022-12-16T21:27:50.403Z,98.82
2022-12-16T21:30:35.569Z,98.84
2022-12-16T21:33:20.853Z,98.61
2022-12-16T21:36:13.537Z,98.91
2022-12-16T21:38:58.989Z,98.92
2022-12-16T21:41:44.251Z,98.69
2022-12-16T21:44:29.496Z,99.00
2022-12-16T21:47:14.989Z,99.01
2022-12-16T21:50:00.529Z,99.68
2022-12-16T21:52:46.130Z,98.97
2022-12-16T21:55:32.257Z,98.36
2022-12-16T21:58:30.951Z,98.35
2022-12-16T22:01:18.150Z,97.73
2022-12-16T22:04:04.025Z,97.35
2022-12-16T22:06:49.386Z,97.42
2022-12-16T22:09:35.492Z,97.96
2022-12-16T22:12:21.301Z,98.48
2022-12-16T22:15:06.417Z,99.33
2022-12-16T22:17:57.689Z,99.88
2022-12-16T22:20:44.212Z,99.37
2022-12-16T22:23:29.404Z,99.20
2022-12-16T22:26:16.988Z,99.36
2022-12-16T22:29:02.196Z,98.93
2022-12-16T22:31:47.663Z,98.22
2022-12-16T22:34:33.262Z,98.23
2022-12-16T22:37:18.477Z,96.89
2022-12-16T22:40:03.758Z,97.71
2022-12-16T22:42:49.082Z,97.74
2022-12-16T22:45:34.549Z,98.05
2022-12-16T22:48:19.673Z,98.04
2022-12-16T22:51:05.079Z,97.82
2022-12-16T22:53:50.288Z,97.95
2022-12-16T22:56:35.561Z,98.30
2022-12-16T22:59:20.749Z,97.66
2022-12-16T23:02:06.031Z,98.72
2022-12-16T23:04:51.401Z,98.76
2022-12-16T23:07:37.540Z,98.83
2022-12-16T23:10:24.142Z,98.80
2022-12-16T23:13:09.306Z,98.28
2022-12-16T23:15:56.470Z,98.40
2022-12-16T23:18:42.021Z,99.04
2022-12-16T23:21:35.102Z,98.29
2022-12-16T23:24:20.335Z,98.28
2022-12-16T23:27:05.618Z,98.31
2022-12-16T23:29:50.890Z,96.34
2022-12-16T23:32:40.754Z,98.38
2022-12-16T23:35:26.683Z,98.21
2022-12-16T23:38:23.267Z,96.07
2022-12-16T23:41:16.005Z,96.12
2022-12-16T23:44:02.107Z,96.88
2022-12-16T23:46:47.962Z,98.58
2022-12-16T23:49:33.241Z,98.85
2022-12-16T23:52:18.753Z,98.77
2022-12-16T23:55:03.802Z,98.85
2022-12-16T23:57:49.140Z,98.96
